Flight Track Log - Related Links

Times and Time Zones

All times are in EDT time to prevent confusion due to time zone crossing. See the EJA922 flight status page for this flight to view local times or setup timezone preferences in your user account.

Time Position Orientation Groundspeed Altitude Reporting Facility
EDT Latitude Longitude Course Direction KTS MPH feet Rate Location/Type
Wed 06:19:11 AM 38.8833 -77.4667 288° West 233 268 3,100  Level Potomac TRACON
Wed 06:20:11 AM 38.8333 -77.5333 226° Southwest 241 277 3,900 2,646 Climbing Potomac TRACON
Wed 06:21:52 AM 38.8078 -77.6803 257° West 256 295 10,200 3,000 Climbing Washington Center
Wed 06:22:53 AM 38.7950 -77.8022 262° West 308 354 12,000 2,186 Climbing Washington Center
Wed 06:23:50 AM 38.7925 -77.9356 269° West 353 406 14,500 2,150 Climbing Washington Center
Wed 06:24:00 AM 38.8296 -78.1016 288° West  Level FlightAware Approximate
Wed 06:24:53 AM 38.8211 -78.0669 286° West 374 430 16,300  Level Washington Center
Wed 06:25:50 AM 38.8497 -78.1986 286° West 379 436 17,900 1,475 Climbing Washington Center
Wed 06:26:51 AM 38.8528 -78.3400 272° West 384 442 19,200 1,377 Climbing Washington Center
Wed 06:27:52 AM 38.8514 -78.4864 269° West 396 456 20,700 1,475 Climbing Washington Center
Wed 06:28:53 AM 38.8500 -78.6278 269° West 401 461 22,200 1,424 Climbing Washington Center
Wed 06:29:50 AM 38.8483 -78.7794 269° West 412 474 23,500 1,322 Climbing Washington Center
Wed 06:30:51 AM 38.8442 -78.9314 268° West 422 486 24,800 1,279 Climbing Washington Center
Wed 06:31:52 AM 38.8419 -79.0806 269° West 422 486 26,100 1,311 Climbing Washington Center
Wed 06:32:50 AM 38.8353 -79.2347 267° West 422 486 27,400 1,289 Climbing Washington Center
Wed 06:33:53 AM 38.8078 -79.3828 257° West 422 486 28,700 1,131 Climbing Washington Center
Wed 06:34:52 AM 38.7872 -79.5014 258° West 427 491 29,700 1,300 Climbing Washington Center
Wed 06:35:53 AM 38.7539 -79.6914 257° West 440 506 31,300 1,785 Climbing Washington Center
Wed 06:36:53 AM 38.7278 -79.8389 257° West 446 513 33,300 1,983 Climbing Washington Center
Wed 06:37:51 AM 38.7022 -79.9706 256° West 446 513 35,200 1,462 Climbing Washington Center
Wed 06:38:52 AM 38.6736 -80.1231 257° West 446 513 36,200 1,056 Climbing Washington Center
Wed 06:39:56 AM 38.6381 -80.3039 256° West 449 517 37,400 1,056 Climbing Indianapolis Center
Wed 06:40:57 AM 38.6081 -80.4633 257° West 458 527 38,400 984 Climbing Indianapolis Center
Wed 06:41:58 AM 38.5772 -80.6233 256° West 461 531 39,400 787 Climbing Indianapolis Center
Wed 06:42:59 AM 38.5469 -80.7828 256° West 461 531 40,000 298 Climbing Indianapolis Center
Wed 06:43:59 AM 38.5153 -80.9397 256° West 456 525 40,000  Level Indianapolis Center
Wed 06:45:00 AM 38.4850 -81.0936 256° West 448 516 40,000  Level Indianapolis Center
Wed 06:46:01 AM 38.4544 -81.2475 256° West 443 510 40,000  Level Indianapolis Center
Wed 06:47:02 AM 38.4225 -81.4006 255° West 441 507 40,000  Level Indianapolis Center
Wed 06:48:03 AM 38.3925 -81.5561 256° West 445 512 40,000  Level Indianapolis Center
Wed 06:49:04 AM 38.3625 -81.7078 256° West 439 505 40,000 -694 Level Indianapolis Center
Wed 06:50:04 AM 38.3250 -81.8544 252° West 434 499 38,600 -1,686 Descending Indianapolis Center
Wed 06:51:05 AM 38.2825 -82.0058 250° West 449 517 36,600 -1,279 Descending Indianapolis Center
Wed 06:52:06 AM 38.2397 -82.1606 251° West 461 531 36,000 -492 Descending Indianapolis Center
Wed 06:53:07 AM 38.1969 -82.3117 250° West 455 524 35,600 -1,328 Descending Indianapolis Center
Wed 06:54:08 AM 38.1536 -82.4611 250° West 450 518 33,300 -2,311 Descending Indianapolis Center
Wed 06:55:09 AM 38.1075 -82.6231 250° West 469 540 30,900 -1,623 Descending Indianapolis Center
Wed 06:56:10 AM 38.0639 -82.7767 250° West 465 535 30,000 -443 Descending Indianapolis Center
Wed 06:57:11 AM 38.0189 -82.9317 250° West 469 540 30,000  Level Indianapolis Center
Wed 06:58:12 AM 37.9725 -83.0883 249° West 476 548 30,000  Level Indianapolis Center
Wed 06:59:13 AM 37.9264 -83.2481 250° West 482 555 30,000  Level Indianapolis Center
Wed 07:00:14 AM 37.8803 -83.4031 249° West 475 547 30,000 -590 Level Indianapolis Center
Wed 07:01:15 AM 37.8264 -83.5819 249° West 471 542 28,800 -1,180 Descending Indianapolis Center
Wed 07:02:16 AM 37.7794 -83.7372 249° West 474 545 27,600 -1,279 Descending Indianapolis Center
Wed 07:03:17 AM 37.7333 -83.8900 249° West 468 539 26,200 -1,328 Descending Indianapolis Center
Wed 07:04:18 AM 37.6892 -84.0408 250° West 461 531 24,900 -1,082 Descending Indianapolis Center
Wed 07:05:19 AM 37.6453 -84.1856 249° West 446 513 24,000 -446 Descending Indianapolis Center
Wed 07:06:19 AM 37.6025 -84.3242 249° West 429 494 24,000  Level Indianapolis Center
Wed 07:07:20 AM 37.5608 -84.4594 249° West 418 481 24,000 -1,180 Level Indianapolis Center
Wed 07:08:21 AM 37.5189 -84.5961 249° West 416 479 21,600 -3,171 Descending Indianapolis Center
Wed 07:09:23 AM 37.5158 -84.7464 269° West 441 507 17,500 -4,000 Descending Indianapolis Center
Wed 07:10:24 AM 37.5903 -84.8678 308° West 441 507 13,400 -3,197 Descending Indianapolis Center
Wed 07:11:25 AM 37.6689 -84.9747 313° West 418 481 11,000 -1,672 Descending Indianapolis Center
Wed 07:12:26 AM 37.7567 -85.0947 313° West 399 459 10,000 -541 Descending Indianapolis Center
Wed 07:13:27 AM 37.8281 -85.1936 312° West 383 441 9,900 -344 Descending Indianapolis Center
Wed 07:14:28 AM 37.8806 -85.2675 312° West 317 365 9,300 -1,230 Descending Indianapolis Center
Wed 07:15:29 AM 37.9356 -85.3425 313° West 292 336 7,400 -1,623 Descending Indianapolis Center
Wed 07:16:30 AM 37.9886 -85.4178 312° West 287 330 6,000 -689 Descending Indianapolis Center
Wed 07:17:31 AM 38.0425 -85.4925 312° West 285 328 6,000 -49 Level Indianapolis Center
Wed 07:18:32 AM 38.0969 -85.5672 313° West 286 329 5,900  Descending Indianapolis Center
Wed 07:19:33 AM 38.1919 -85.6025 344° North 300 345 6,000 -98 Climbing Indianapolis Center
Wed 07:20:34 AM 38.2758 -85.6292 346° North 307 353 5,700 -984 Descending Indianapolis Center
Wed 07:21:35 AM 38.3536 -85.6569 344° North 295 339 4,000 -878 Descending Indianapolis Center
Wed 07:22:37 AM 38.3767 -85.7225 294° West 252 290 3,900 -390 Descending Indianapolis Center
Wed 07:23:38 AM 38.3483 -85.7739 235° Southwest 217 250 3,200 -541 Descending Indianapolis Center
Wed 07:24:39 AM 38.3022 -85.7711 177° South 191 220 2,800 -492 Descending Indianapolis Center
Wed 07:25:40 AM 38.2594 -85.7561 165° South 169 194 2,200 -590 Descending Indianapolis Center

Login

Don't have an account? Register now (free) for customized features, flight alerts, and more!